sensor_id;sensor_type;location;lat;lon;timestamp;temperature;humidity
72591;SHT31;60625;51.212;5.952;2023-10-09T00:04:59;16.16;82.40
72591;SHT31;60625;51.212;5.952;2023-10-09T00:10:02;16.10;82.35
72591;SHT31;60625;51.212;5.952;2023-10-09T00:15:12;16.03;82.44
72591;SHT31;60625;51.212;5.952;2023-10-09T00:20:13;15.99;82.45
72591;SHT31;60625;51.212;5.952;2023-10-09T00:25:25;15.94;82.53
72591;SHT31;60625;51.212;5.952;2023-10-09T00:30:30;15.90;82.66
72591;SHT31;60625;51.212;5.952;2023-10-09T00:35:31;15.88;82.71
72591;SHT31;60625;51.212;5.952;2023-10-09T00:40:38;15.86;82.81
72591;SHT31;60625;51.212;5.952;2023-10-09T00:45:45;15.85;82.86
72591;SHT31;60625;51.212;5.952;2023-10-09T00:50:47;15.84;82.90
72591;SHT31;60625;51.212;5.952;2023-10-09T00:55:52;15.84;82.88
72591;SHT31;60625;51.212;5.952;2023-10-09T01:00:56;15.84;82.81
72591;SHT31;60625;51.212;5.952;2023-10-09T01:06:00;15.85;82.71
72591;SHT31;60625;51.212;5.952;2023-10-09T01:11:12;15.84;82.72
72591;SHT31;60625;51.212;5.952;2023-10-09T01:16:29;15.85;82.79
72591;SHT31;60625;51.212;5.952;2023-10-09T01:21:31;15.87;82.75
72591;SHT31;60625;51.212;5.952;2023-10-09T01:26:32;15.88;82.72
72591;SHT31;60625;51.212;5.952;2023-10-09T01:31:48;15.90;82.73
72591;SHT31;60625;51.212;5.952;2023-10-09T01:37:00;15.93;82.71
72591;SHT31;60625;51.212;5.952;2023-10-09T01:42:05;15.94;82.61
72591;SHT31;60625;51.212;5.952;2023-10-09T01:47:06;15.95;82.60
72591;SHT31;60625;51.212;5.952;2023-10-09T01:52:14;15.95;82.52
72591;SHT31;60625;51.212;5.952;2023-10-09T01:57:17;15.96;82.50
72591;SHT31;60625;51.212;5.952;2023-10-09T02:02:22;15.97;82.51
72591;SHT31;60625;51.212;5.952;2023-10-09T02:07:26;15.97;82.50
72591;SHT31;60625;51.212;5.952;2023-10-09T02:12:27;15.97;82.46
72591;SHT31;60625;51.212;5.952;2023-10-09T02:17:33;15.97;82.50
72591;SHT31;60625;51.212;5.952;2023-10-09T02:22:34;15.96;82.57
72591;SHT31;60625;51.212;5.952;2023-10-09T02:27:34;15.95;82.53
72591;SHT31;60625;51.212;5.952;2023-10-09T02:32:47;15.94;82.61
72591;SHT31;60625;51.212;5.952;2023-10-09T02:37:53;15.93;82.68
72591;SHT31;60625;51.212;5.952;2023-10-09T02:42:54;15.92;82.70
72591;SHT31;60625;51.212;5.952;2023-10-09T02:47:54;15.91;82.68
72591;SHT31;60625;51.212;5.952;2023-10-09T02:52:55;15.91;82.71
72591;SHT31;60625;51.212;5.952;2023-10-09T02:58:09;15.90;82.70
72591;SHT31;60625;51.212;5.952;2023-10-09T03:03:20;15.91;82.61
72591;SHT31;60625;51.212;5.952;2023-10-09T03:08:21;15.90;82.60
72591;SHT31;60625;51.212;5.952;2023-10-09T03:13:22;15.90;82.50
72591;SHT31;60625;51.212;5.952;2023-10-09T03:18:22;15.91;82.49
72591;SHT31;60625;51.212;5.952;2023-10-09T03:23:24;15.92;82.50
72591;SHT31;60625;51.212;5.952;2023-10-09T03:28:24;15.91;82.53
72591;SHT31;60625;51.212;5.952;2023-10-09T03:33:25;15.90;82.60
72591;SHT31;60625;51.212;5.952;2023-10-09T03:38:26;15.91;82.63
72591;SHT31;60625;51.212;5.952;2023-10-09T03:43:34;15.92;82.60
72591;SHT31;60625;51.212;5.952;2023-10-09T03:48:42;15.94;82.44
72591;SHT31;60625;51.212;5.952;2023-10-09T03:53:45;15.96;82.32
72591;SHT31;60625;51.212;5.952;2023-10-09T03:58:48;15.97;82.19
72591;SHT31;60625;51.212;5.952;2023-10-09T04:03:50;15.99;81.97
72591;SHT31;60625;51.212;5.952;2023-10-09T04:08:55;16.03;81.83
72591;SHT31;60625;51.212;5.952;2023-10-09T04:13:58;16.06;81.69
72591;SHT31;60625;51.212;5.952;2023-10-09T04:19:01;16.07;81.63
72591;SHT31;60625;51.212;5.952;2023-10-09T04:24:11;16.07;81.64
72591;SHT31;60625;51.212;5.952;2023-10-09T04:29:15;16.07;81.73
72591;SHT31;60625;51.212;5.952;2023-10-09T04:34:37;16.07;81.76
72591;SHT31;60625;51.212;5.952;2023-10-09T04:39:48;16.07;81.79
72591;SHT31;60625;51.212;5.952;2023-10-09T04:45:01;16.08;81.88
72591;SHT31;60625;51.212;5.952;2023-10-09T04:50:05;16.08;81.82
72591;SHT31;60625;51.212;5.952;2023-10-09T04:55:10;16.09;81.78
72591;SHT31;60625;51.212;5.952;2023-10-09T05:00:14;16.10;81.64
72591;SHT31;60625;51.212;5.952;2023-10-09T05:05:42;16.11;81.53
72591;SHT31;60625;51.212;5.952;2023-10-09T05:10:43;16.11;81.49
72591;SHT31;60625;51.212;5.952;2023-10-09T05:16:07;16.12;81.40
72591;SHT31;60625;51.212;5.952;2023-10-09T05:21:29;16.13;81.37
72591;SHT31;60625;51.212;5.952;2023-10-09T05:26:33;16.14;81.35
72591;SHT31;60625;51.212;5.952;2023-10-09T05:31:49;16.15;81.32
72591;SHT31;60625;51.212;5.952;2023-10-09T05:37:15;16.16;81.24
72591;SHT31;60625;51.212;5.952;2023-10-09T05:42:28;16.17;81.13
72591;SHT31;60625;51.212;5.952;2023-10-09T05:47:37;16.18;81.07
72591;SHT31;60625;51.212;5.952;2023-10-09T05:52:44;16.17;81.00
72591;SHT31;60625;51.212;5.952;2023-10-09T05:57:54;16.18;81.00
72591;SHT31;60625;51.212;5.952;2023-10-09T06:03:15;16.19;81.00
72591;SHT31;60625;51.212;5.952;2023-10-09T06:08:22;16.20;81.00
72591;SHT31;60625;51.212;5.952;2023-10-09T06:13:27;16.21;81.00
72591;SHT31;60625;51.212;5.952;2023-10-09T06:18:37;16.24;81.00
72591;SHT31;60625;51.212;5.952;2023-10-09T06:23:41;16.26;81.00
72591;SHT31;60625;51.212;5.952;2023-10-09T06:29:00;16.30;81.03
72591;SHT31;60625;51.212;5.952;2023-10-09T06:34:17;16.33;81.14
72591;SHT31;60625;51.212;5.952;2023-10-09T06:39:18;16.36;81.19
72591;SHT31;60625;51.212;5.952;2023-10-09T06:44:38;16.37;81.18
72591;SHT31;60625;51.212;5.952;2023-10-09T06:49:59;16.40;80.98
72591;SHT31;60625;51.212;5.952;2023-10-09T06:55:18;16.42;80.72
72591;SHT31;60625;51.212;5.952;2023-10-09T07:00:20;16.45;80.64
72591;SHT31;60625;51.212;5.952;2023-10-09T07:05:39;16.50;80.64
72591;SHT31;60625;51.212;5.952;2023-10-09T07:11:00;16.55;80.61
72591;SHT31;60625;51.212;5.952;2023-10-09T07:16:20;16.59;80.36
72591;SHT31;60625;51.212;5.952;2023-10-09T07:21:28;16.64;80.13
72591;SHT31;60625;51.212;5.952;2023-10-09T07:26:29;16.69;79.83
72591;SHT31;60625;51.212;5.952;2023-10-09T07:31:48;16.74;79.85
72591;SHT31;60625;51.212;5.952;2023-10-09T07:36:57;16.79;79.72
72591;SHT31;60625;51.212;5.952;2023-10-09T07:42:04;16.82;79.60
72591;SHT31;60625;51.212;5.952;2023-10-09T07:47:33;16.90;79.45
72591;SHT31;60625;51.212;5.952;2023-10-09T07:53:00;16.98;79.30
72591;SHT31;60625;51.212;5.952;2023-10-09T07:58:15;17.07;78.97
72591;SHT31;60625;51.212;5.952;2023-10-09T08:03:16;17.16;79.06
72591;SHT31;60625;51.212;5.952;2023-10-09T08:08:24;17.22;79.24
72591;SHT31;60625;51.212;5.952;2023-10-09T08:13:33;17.23;79.19
72591;SHT31;60625;51.212;5.952;2023-10-09T08:18:50;17.25;79.01
72591;SHT31;60625;51.212;5.952;2023-10-09T08:23:57;17.31;78.79
72591;SHT31;60625;51.212;5.952;2023-10-09T08:29:04;17.36;78.60
72591;SHT31;60625;51.212;5.952;2023-10-09T08:34:28;17.43;78.57
72591;SHT31;60625;51.212;5.952;2023-10-09T08:39:29;17.45;78.31
72591;SHT31;60625;51.212;5.952;2023-10-09T08:44:33;17.49;78.32
72591;SHT31;60625;51.212;5.952;2023-10-09T08:49:35;17.54;78.19
72591;SHT31;60625;51.212;5.952;2023-10-09T08:54:37;17.63;78.19
72591;SHT31;60625;51.212;5.952;2023-10-09T08:59:41;17.74;77.90
72591;SHT31;60625;51.212;5.952;2023-10-09T09:04:44;17.85;77.52
72591;SHT31;60625;51.212;5.952;2023-10-09T09:10:00;17.98;77.22
72591;SHT31;60625;51.212;5.952;2023-10-09T09:15:21;18.08;76.66
72591;SHT31;60625;51.212;5.952;2023-10-09T09:20:27;18.17;76.50
72591;SHT31;60625;51.212;5.952;2023-10-09T09:25:39;18.27;76.09
72591;SHT31;60625;51.212;5.952;2023-10-09T09:31:06;18.40;75.84
72591;SHT31;60625;51.212;5.952;2023-10-09T09:36:13;18.54;75.54
72591;SHT31;60625;51.212;5.952;2023-10-09T09:41:14;18.72;75.07
72591;SHT31;60625;51.212;5.952;2023-10-09T09:46:26;18.94;74.67
72591;SHT31;60625;51.212;5.952;2023-10-09T09:51:39;19.07;73.79
72591;SHT31;60625;51.212;5.952;2023-10-09T09:56:46;19.19;73.67
72591;SHT31;60625;51.212;5.952;2023-10-09T10:01:54;19.30;73.13
72591;SHT31;60625;51.212;5.952;2023-10-09T10:06:58;19.42;73.06
72591;SHT31;60625;51.212;5.952;2023-10-09T10:12:05;19.54;73.04
72591;SHT31;60625;51.212;5.952;2023-10-09T10:17:14;19.67;72.90
72591;SHT31;60625;51.212;5.952;2023-10-09T10:22:24;19.76;72.60
72591;SHT31;60625;51.212;5.952;2023-10-09T10:27:30;19.88;72.02
72591;SHT31;60625;51.212;5.952;2023-10-09T10:37:51;20.07;70.73
72591;SHT31;60625;51.212;5.952;2023-10-09T10:43:00;20.16;70.21
72591;SHT31;60625;51.212;5.952;2023-10-09T10:48:13;20.23;70.10
72591;SHT31;60625;51.212;5.952;2023-10-09T10:53:37;20.32;70.08
72591;SHT31;60625;51.212;5.952;2023-10-09T10:58:53;20.42;69.81
72591;SHT31;60625;51.212;5.952;2023-10-09T11:04:10;20.45;69.39
72591;SHT31;60625;51.212;5.952;2023-10-09T11:09:12;20.51;69.42
72591;SHT31;60625;51.212;5.952;2023-10-09T11:14:22;20.61;69.49
72591;SHT31;60625;51.212;5.952;2023-10-09T11:19:25;20.74;69.15
72591;SHT31;60625;51.212;5.952;2023-10-09T11:24:32;20.86;68.88
72591;SHT31;60625;51.212;5.952;2023-10-09T11:29:35;20.90;68.39
72591;SHT31;60625;51.212;5.952;2023-10-09T11:34:43;21.00;68.54
72591;SHT31;60625;51.212;5.952;2023-10-09T11:39:52;21.07;68.29
72591;SHT31;60625;51.212;5.952;2023-10-09T11:44:52;21.16;68.29
72591;SHT31;60625;51.212;5.952;2023-10-09T11:49:56;21.22;67.72
72591;SHT31;60625;51.212;5.952;2023-10-09T11:55:04;21.27;67.50
72591;SHT31;60625;51.212;5.952;2023-10-09T12:00:07;21.38;67.43
72591;SHT31;60625;51.212;5.952;2023-10-09T12:05:25;21.54;67.50
72591;SHT31;60625;51.212;5.952;2023-10-09T12:10:28;21.73;67.26
72591;SHT31;60625;51.212;5.952;2023-10-09T12:15:30;21.82;66.58
72591;SHT31;60625;51.212;5.952;2023-10-09T12:20:37;21.86;66.14
72591;SHT31;60625;51.212;5.952;2023-10-09T12:25:38;21.83;66.18
72591;SHT31;60625;51.212;5.952;2023-10-09T12:30:39;21.86;66.11
72591;SHT31;60625;51.212;5.952;2023-10-09T12:35:40;21.92;66.06
72591;SHT31;60625;51.212;5.952;2023-10-09T12:40:41;21.99;65.96
72591;SHT31;60625;51.212;5.952;2023-10-09T12:45:50;22.03;65.79
72591;SHT31;60625;51.212;5.952;2023-10-09T12:50:51;22.04;65.70
72591;SHT31;60625;51.212;5.952;2023-10-09T12:55:54;22.00;65.54
72591;SHT31;60625;51.212;5.952;2023-10-09T13:00:56;21.93;65.31
72591;SHT31;60625;51.212;5.952;2023-10-09T13:06:03;21.87;65.66
72591;SHT31;60625;51.212;5.952;2023-10-09T13:11:10;21.92;66.04
72591;SHT31;60625;51.212;5.952;2023-10-09T13:16:12;22.03;66.20
72591;SHT31;60625;51.212;5.952;2023-10-09T13:21:27;22.10;66.07
72591;SHT31;60625;51.212;5.952;2023-10-09T13:26:38;22.14;65.60
72591;SHT31;60625;51.212;5.952;2023-10-09T13:31:43;22.14;65.12
72591;SHT31;60625;51.212;5.952;2023-10-09T13:36:47;22.06;65.03
72591;SHT31;60625;51.212;5.952;2023-10-09T13:41:54;21.94;64.96
72591;SHT31;60625;51.212;5.952;2023-10-09T13:47:00;21.84;65.21
72591;SHT31;60625;51.212;5.952;2023-10-09T13:52:05;21.80;65.43
72591;SHT31;60625;51.212;5.952;2023-10-09T13:57:08;21.79;65.37
72591;SHT31;60625;51.212;5.952;2023-10-09T14:02:10;21.77;65.54
72591;SHT31;60625;51.212;5.952;2023-10-09T14:07:17;21.75;65.60
72591;SHT31;60625;51.212;5.952;2023-10-09T14:12:17;21.73;65.71
72591;SHT31;60625;51.212;5.952;2023-10-09T14:17:20;21.74;65.99
72591;SHT31;60625;51.212;5.952;2023-10-09T14:22:28;21.73;66.15
72591;SHT31;60625;51.212;5.952;2023-10-09T14:27:30;21.72;66.36
72591;SHT31;60625;51.212;5.952;2023-10-09T14:32:30;21.70;66.56
72591;SHT31;60625;51.212;5.952;2023-10-09T14:37:34;21.78;66.46
72591;SHT31;60625;51.212;5.952;2023-10-09T14:42:35;21.89;66.49
72591;SHT31;60625;51.212;5.952;2023-10-09T14:47:36;21.93;66.51
72591;SHT31;60625;51.212;5.952;2023-10-09T14:52:37;21.97;66.44
72591;SHT31;60625;51.212;5.952;2023-10-09T14:57:39;22.00;66.47
72591;SHT31;60625;51.212;5.952;2023-10-09T15:02:42;21.99;66.40
72591;SHT31;60625;51.212;5.952;2023-10-09T15:07:43;21.94;66.51
72591;SHT31;60625;51.212;5.952;2023-10-09T15:12:43;21.89;66.94
72591;SHT31;60625;51.212;5.952;2023-10-09T15:17:47;21.81;67.18
72591;SHT31;60625;51.212;5.952;2023-10-09T15:22:47;21.70;67.44
72591;SHT31;60625;51.212;5.952;2023-10-09T15:27:48;21.57;67.67
72591;SHT31;60625;51.212;5.952;2023-10-09T15:32:50;21.48;67.86
72591;SHT31;60625;51.212;5.952;2023-10-09T15:37:50;21.42;67.96
72591;SHT31;60625;51.212;5.952;2023-10-09T15:42:52;21.30;68.04
72591;SHT31;60625;51.212;5.952;2023-10-09T15:47:56;21.23;68.26
72591;SHT31;60625;51.212;5.952;2023-10-09T15:52:57;21.17;68.43
72591;SHT31;60625;51.212;5.952;2023-10-09T15:57:58;21.14;68.58
72591;SHT31;60625;51.212;5.952;2023-10-09T16:03:02;21.11;68.75
72591;SHT31;60625;51.212;5.952;2023-10-09T16:08:04;21.08;68.96
72591;SHT31;60625;51.212;5.952;2023-10-09T16:13:05;21.05;69.15
72591;SHT31;60625;51.212;5.952;2023-10-09T16:18:10;21.03;69.32
72591;SHT31;60625;51.212;5.952;2023-10-09T16:23:11;21.01;69.48
72591;SHT31;60625;51.212;5.952;2023-10-09T16:28:13;20.97;69.67
72591;SHT31;60625;51.212;5.952;2023-10-09T16:33:15;20.89;69.86
72591;SHT31;60625;51.212;5.952;2023-10-09T16:38:16;20.77;70.10
72591;SHT31;60625;51.212;5.952;2023-10-09T16:43:17;20.64;70.28
72591;SHT31;60625;51.212;5.952;2023-10-09T16:48:17;20.51;70.59
72591;SHT31;60625;51.212;5.952;2023-10-09T16:53:18;20.41;70.93
72591;SHT31;60625;51.212;5.952;2023-10-09T16:58:19;20.29;71.18
72591;SHT31;60625;51.212;5.952;2023-10-09T17:03:20;20.16;71.35
72591;SHT31;60625;51.212;5.952;2023-10-09T17:08:21;20.05;71.50
72591;SHT31;60625;51.212;5.952;2023-10-09T17:13:23;19.96;71.68
72591;SHT31;60625;51.212;5.952;2023-10-09T17:18:26;19.86;71.82
72591;SHT31;60625;51.212;5.952;2023-10-09T17:23:27;19.78;72.00
72591;SHT31;60625;51.212;5.952;2023-10-09T17:28:27;19.69;72.26
72591;SHT31;60625;51.212;5.952;2023-10-09T17:33:30;19.61;72.51
72591;SHT31;60625;51.212;5.952;2023-10-09T17:38:32;19.56;72.76
72591;SHT31;60625;51.212;5.952;2023-10-09T17:43:33;19.49;73.00
72591;SHT31;60625;51.212;5.952;2023-10-09T17:48:33;19.42;73.18
72591;SHT31;60625;51.212;5.952;2023-10-09T17:53:37;19.34;73.36
72591;SHT31;60625;51.212;5.952;2023-10-09T17:58:38;19.24;73.53
72591;SHT31;60625;51.212;5.952;2023-10-09T18:03:44;19.13;73.70
72591;SHT31;60625;51.212;5.952;2023-10-09T18:08:45;19.03;73.89
72591;SHT31;60625;51.212;5.952;2023-10-09T18:13:48;18.92;74.18
72591;SHT31;60625;51.212;5.952;2023-10-09T18:18:48;18.85;74.29
72591;SHT31;60625;51.212;5.952;2023-10-09T18:23:50;18.77;74.49
72591;SHT31;60625;51.212;5.952;2023-10-09T18:28:56;18.69;74.65
72591;SHT31;60625;51.212;5.952;2023-10-09T18:33:58;18.61;74.81
72591;SHT31;60625;51.212;5.952;2023-10-09T18:38:58;18.52;74.98
72591;SHT31;60625;51.212;5.952;2023-10-09T18:43:59;18.46;75.14
72591;SHT31;60625;51.212;5.952;2023-10-09T18:49:01;18.40;75.26
72591;SHT31;60625;51.212;5.952;2023-10-09T18:54:02;18.33;75.31
72591;SHT31;60625;51.212;5.952;2023-10-09T18:59:05;18.26;75.40
72591;SHT31;60625;51.212;5.952;2023-10-09T19:04:10;18.21;75.54
72591;SHT31;60625;51.212;5.952;2023-10-09T19:09:12;18.15;75.65
72591;SHT31;60625;51.212;5.952;2023-10-09T19:14:21;18.09;75.79
72591;SHT31;60625;51.212;5.952;2023-10-09T19:19:21;18.04;75.92
72591;SHT31;60625;51.212;5.952;2023-10-09T19:24:25;17.97;76.13
72591;SHT31;60625;51.212;5.952;2023-10-09T19:29:26;17.90;76.32
72591;SHT31;60625;51.212;5.952;2023-10-09T19:34:26;17.84;76.50
72591;SHT31;60625;51.212;5.952;2023-10-09T19:39:27;17.78;76.70
72591;SHT31;60625;51.212;5.952;2023-10-09T19:44:31;17.72;76.94
72591;SHT31;60625;51.212;5.952;2023-10-09T19:49:33;17.68;77.11
72591;SHT31;60625;51.212;5.952;2023-10-09T19:54:33;17.64;77.29
72591;SHT31;60625;51.212;5.952;2023-10-09T19:59:37;17.58;77.48
72591;SHT31;60625;51.212;5.952;2023-10-09T20:04:37;17.54;77.54
72591;SHT31;60625;51.212;5.952;2023-10-09T20:09:38;17.49;77.64
72591;SHT31;60625;51.212;5.952;2023-10-09T20:14:39;17.46;77.74
72591;SHT31;60625;51.212;5.952;2023-10-09T20:19:40;17.42;77.77
72591;SHT31;60625;51.212;5.952;2023-10-09T20:24:42;17.39;77.82
72591;SHT31;60625;51.212;5.952;2023-10-09T20:29:44;17.35;77.89
72591;SHT31;60625;51.212;5.952;2023-10-09T20:34:46;17.31;77.96
72591;SHT31;60625;51.212;5.952;2023-10-09T20:39:47;17.24;78.05
72591;SHT31;60625;51.212;5.952;2023-10-09T20:44:48;17.18;78.25
72591;SHT31;60625;51.212;5.952;2023-10-09T20:49:49;17.13;78.40
72591;SHT31;60625;51.212;5.952;2023-10-09T20:54:49;17.08;78.48
72591;SHT31;60625;51.212;5.952;2023-10-09T20:59:50;17.03;78.53
72591;SHT31;60625;51.212;5.952;2023-10-09T21:04:51;16.97;78.57
72591;SHT31;60625;51.212;5.952;2023-10-09T21:09:52;16.91;78.54
72591;SHT31;60625;51.212;5.952;2023-10-09T21:14:53;16.82;78.69
72591;SHT31;60625;51.212;5.952;2023-10-09T21:19:53;16.75;78.77
72591;SHT31;60625;51.212;5.952;2023-10-09T21:24:54;16.67;78.99
72591;SHT31;60625;51.212;5.952;2023-10-09T21:29:56;16.64;79.13
72591;SHT31;60625;51.212;5.952;2023-10-09T21:34:57;16.59;79.28
72591;SHT31;60625;51.212;5.952;2023-10-09T21:39:59;16.55;79.24
72591;SHT31;60625;51.212;5.952;2023-10-09T21:45:02;16.47;79.39
72591;SHT31;60625;51.212;5.952;2023-10-09T21:50:07;16.38;79.71
72591;SHT31;60625;51.212;5.952;2023-10-09T21:55:08;16.28;79.98
72591;SHT31;60625;51.212;5.952;2023-10-09T22:00:09;16.21;79.75
72591;SHT31;60625;51.212;5.952;2023-10-09T22:05:15;16.15;79.66
72591;SHT31;60625;51.212;5.952;2023-10-09T22:10:20;16.10;79.77
72591;SHT31;60625;51.212;5.952;2023-10-09T22:15:21;16.05;79.76
72591;SHT31;60625;51.212;5.952;2023-10-09T22:20:22;15.97;80.08
72591;SHT31;60625;51.212;5.952;2023-10-09T22:25:30;15.90;80.25
72591;SHT31;60625;51.212;5.952;2023-10-09T22:30:31;15.85;80.30
72591;SHT31;60625;51.212;5.952;2023-10-09T22:35:35;15.79;80.61
72591;SHT31;60625;51.212;5.952;2023-10-09T22:40:44;15.73;80.82
72591;SHT31;60625;51.212;5.952;2023-10-09T22:45:49;15.68;80.79
72591;SHT31;60625;51.212;5.952;2023-10-09T22:50:51;15.64;80.77
72591;SHT31;60625;51.212;5.952;2023-10-09T22:55:59;15.59;80.84
72591;SHT31;60625;51.212;5.952;2023-10-09T23:01:02;15.53;80.91
72591;SHT31;60625;51.212;5.952;2023-10-09T23:06:12;15.48;80.96
72591;SHT31;60625;51.212;5.952;2023-10-09T23:11:13;15.43;80.99
72591;SHT31;60625;51.212;5.952;2023-10-09T23:16:13;15.39;80.92
72591;SHT31;60625;51.212;5.952;2023-10-09T23:21:14;15.32;81.04
72591;SHT31;60625;51.212;5.952;2023-10-09T23:26:22;15.27;80.81
72591;SHT31;60625;51.212;5.952;2023-10-09T23:31:26;15.20;80.75
72591;SHT31;60625;51.212;5.952;2023-10-09T23:36:35;15.17;80.93
72591;SHT31;60625;51.212;5.952;2023-10-09T23:41:43;15.13;81.01
72591;SHT31;60625;51.212;5.952;2023-10-09T23:46:58;15.08;81.04
72591;SHT31;60625;51.212;5.952;2023-10-09T23:51:59;15.05;81.31
72591;SHT31;60625;51.212;5.952;2023-10-09T23:57:00;14.98;81.85
